createdAt,value
2023-10-01T00:02:01.223Z,80.42
2023-10-01T00:04:08.766Z,80.38
2023-10-01T00:06:11.383Z,80.41
2023-10-01T00:08:14.435Z,80.95
2023-10-01T00:10:17.788Z,81.56
2023-10-01T00:12:20.697Z,81.00
2023-10-01T00:14:28.240Z,81.25
2023-10-01T00:16:32.331Z,80.71
2023-10-01T00:18:35.969Z,81.43
2023-10-01T00:20:38.818Z,80.86
2023-10-01T00:22:41.567Z,80.72
2023-10-01T00:24:44.796Z,80.75
2023-10-01T00:26:47.767Z,80.95
2023-10-01T00:28:55.240Z,80.92
2023-10-01T00:31:00.556Z,81.82
2023-10-01T00:33:09.623Z,81.50
2023-10-01T00:35:15.144Z,81.47
2023-10-01T00:37:18.699Z,80.97
2023-10-01T00:39:22.069Z,81.36
2023-10-01T00:41:28.382Z,82.27
2023-10-01T00:43:34.235Z,82.36
2023-10-01T00:45:37.320Z,82.45
2023-10-01T00:47:42.538Z,82.65
2023-10-01T00:49:48.575Z,82.70
2023-10-01T00:51:51.870Z,82.50
2023-10-01T00:53:59.304Z,82.25
2023-10-01T00:56:04.310Z,82.29
2023-10-01T00:58:07.575Z,82.11
2023-10-01T01:00:15.832Z,82.39
2023-10-01T01:02:19.447Z,82.24
2023-10-01T01:04:24.710Z,82.36
2023-10-01T01:06:31.955Z,82.24
2023-10-01T01:08:48.637Z,82.63
2023-10-01T01:10:54.689Z,82.28
2023-10-01T01:12:57.162Z,82.36
2023-10-01T01:15:01.297Z,82.33
2023-10-01T01:17:06.456Z,82.13
2023-10-01T01:19:10.850Z,82.59
2023-10-01T01:21:17.111Z,81.21
2023-10-01T01:23:23.078Z,82.00
2023-10-01T01:25:27.735Z,81.27
2023-10-01T01:27:33.185Z,81.58
2023-10-01T01:29:42.507Z,81.75
2023-10-01T01:32:04.403Z,81.54
2023-10-01T01:34:14.517Z,81.79
2023-10-01T01:36:19.076Z,81.59
2023-10-01T01:38:25.137Z,82.29
2023-10-01T01:40:33.625Z,81.60
2023-10-01T01:42:36.945Z,82.06
2023-10-01T01:44:39.990Z,82.28
2023-10-01T01:46:49.682Z,82.00
2023-10-01T01:48:54.061Z,81.75
2023-10-01T01:50:59.762Z,81.93
2023-10-01T01:53:06.372Z,82.38
2023-10-01T01:55:25.321Z,82.03
2023-10-01T01:57:30.019Z,82.01
2023-10-01T01:59:33.338Z,82.09
2023-10-01T02:01:37.418Z,82.04
2023-10-01T02:03:46.456Z,81.59
2023-10-01T02:05:49.532Z,82.22
2023-10-01T02:07:52.155Z,82.89
2023-10-01T02:09:57.200Z,82.01
2023-10-01T02:12:00.299Z,82.24
2023-10-01T02:14:05.192Z,82.22
2023-10-01T02:16:31.449Z,81.90
2023-10-01T02:18:36.149Z,82.41
2023-10-01T02:20:39.237Z,82.62
2023-10-01T02:22:42.757Z,81.95
2023-10-01T02:24:57.813Z,81.39
2023-10-01T02:27:01.043Z,82.23
2023-10-01T02:29:04.890Z,81.95
2023-10-01T02:31:10.087Z,81.47
2023-10-01T02:33:22.904Z,82.42
2023-10-01T02:35:35.933Z,82.03
2023-10-01T02:37:44.602Z,82.24
2023-10-01T02:39:47.131Z,81.96
2023-10-01T02:42:11.207Z,82.21
2023-10-01T02:44:14.521Z,81.70
2023-10-01T02:46:17.868Z,82.18
2023-10-01T02:48:22.431Z,82.31
2023-10-01T02:50:26.431Z,82.20
2023-10-01T02:52:39.130Z,82.06
2023-10-01T02:54:42.166Z,81.93
2023-10-01T02:57:03.398Z,82.23
2023-10-01T02:59:11.469Z,82.20
2023-10-01T03:01:15.918Z,82.37
2023-10-01T03:03:19.008Z,82.65
2023-10-01T03:05:28.591Z,82.34
2023-10-01T03:07:38.712Z,82.12
2023-10-01T03:09:41.813Z,82.27
2023-10-01T03:11:46.378Z,82.45
2023-10-01T03:13:50.307Z,82.11
2023-10-01T03:16:13.638Z,82.37
2023-10-01T03:18:25.340Z,82.29
2023-10-01T03:20:42.060Z,81.79
2023-10-01T03:22:53.748Z,82.23
2023-10-01T03:24:59.893Z,82.59
2023-10-01T03:27:22.793Z,82.00
2023-10-01T03:29:36.243Z,82.16
2023-10-01T03:31:38.915Z,82.44
2023-10-01T03:33:42.160Z,82.44
2023-10-01T03:35:49.834Z,82.08
2023-10-01T03:38:10.818Z,82.66
2023-10-01T03:40:36.591Z,83.30
2023-10-01T03:42:40.500Z,82.73
2023-10-01T03:45:21.851Z,83.17
2023-10-01T03:47:25.387Z,83.42
2023-10-01T03:50:01.327Z,83.16
2023-10-01T03:52:05.897Z,82.89
2023-10-01T03:54:09.137Z,83.06
2023-10-01T03:56:15.007Z,82.80
2023-10-01T03:58:20.434Z,82.70
2023-10-01T04:00:36.604Z,83.78
2023-10-01T04:02:48.682Z,83.32
2023-10-01T04:04:58.812Z,83.38
2023-10-01T04:07:11.846Z,83.33
2023-10-01T04:09:20.523Z,83.21
2023-10-01T04:11:51.741Z,83.61
2023-10-01T04:14:10.096Z,83.62
2023-10-01T04:16:16.904Z,83.34
2023-10-01T04:18:20.322Z,83.65
2023-10-01T04:20:22.936Z,83.82
2023-10-01T04:22:27.573Z,83.07
2023-10-01T04:24:30.906Z,83.35
2023-10-01T04:26:37.304Z,83.57
2023-10-01T04:28:47.995Z,83.32
2023-10-01T04:30:53.041Z,83.79
2023-10-01T04:32:56.742Z,83.61
2023-10-01T04:35:13.608Z,83.94
2023-10-01T04:37:33.434Z,83.56
2023-10-01T04:39:40.048Z,83.03
2023-10-01T04:41:43.224Z,83.57
2023-10-01T04:44:07.659Z,83.78
2023-10-01T04:46:10.505Z,83.53
2023-10-01T04:48:17.736Z,83.84
2023-10-01T04:50:21.578Z,83.53
2023-10-01T04:52:26.236Z,83.52
2023-10-01T04:54:30.054Z,83.09
2023-10-01T04:56:32.616Z,83.27
2023-10-01T04:58:40.025Z,83.19
2023-10-01T05:00:47.106Z,82.68
2023-10-01T05:02:51.661Z,83.33
2023-10-01T05:05:12.066Z,83.80
2023-10-01T05:07:16.941Z,83.30
2023-10-01T05:09:24.129Z,83.18
2023-10-01T05:11:33.405Z,83.94
2023-10-01T05:13:36.398Z,83.43
2023-10-01T05:15:39.587Z,84.03
2023-10-01T05:17:43.379Z,84.06
2023-10-01T05:19:47.004Z,84.46
2023-10-01T05:21:49.956Z,84.58
2023-10-01T05:23:56.470Z,84.67
2023-10-01T05:25:59.200Z,84.58
2023-10-01T05:28:08.158Z,84.76
2023-10-01T05:30:32.188Z,84.73
2023-10-01T05:32:53.244Z,84.57
2023-10-01T05:35:15.856Z,85.37
2023-10-01T05:37:38.054Z,85.33
2023-10-01T05:42:02.728Z,85.25
2023-10-01T05:44:12.498Z,85.43
2023-10-01T05:46:16.648Z,85.52
2023-10-01T05:48:22.076Z,84.90
2023-10-01T05:50:31.353Z,85.24
2023-10-01T05:52:34.033Z,85.13
2023-10-01T05:54:52.471Z,85.50
2023-10-01T05:56:57.256Z,85.05
2023-10-01T05:59:02.024Z,84.91
2023-10-01T06:01:08.026Z,84.54
2023-10-01T06:03:11.961Z,84.50
2023-10-01T06:05:33.288Z,84.56
2023-10-01T06:07:35.948Z,84.97
2023-10-01T06:09:38.952Z,84.44
2023-10-01T06:11:50.455Z,84.56
2023-10-01T06:13:55.882Z,84.33
2023-10-01T06:16:13.600Z,84.17
2023-10-01T06:18:16.926Z,84.41
2023-10-01T06:20:25.461Z,83.97
2023-10-01T06:22:28.642Z,84.21
2023-10-01T06:24:32.826Z,84.49
2023-10-01T06:26:39.187Z,84.25
2023-10-01T06:28:42.983Z,84.29
2023-10-01T06:30:45.623Z,84.72
2023-10-01T06:32:48.427Z,84.23
2023-10-01T06:34:59.018Z,83.84
2023-10-01T06:37:03.358Z,84.32
2023-10-01T06:39:08.012Z,84.76
2023-10-01T06:41:15.190Z,84.01
2023-10-01T06:43:17.910Z,84.93
2023-10-01T06:45:38.446Z,85.01
2023-10-01T06:47:41.456Z,84.54
2023-10-01T06:49:59.498Z,85.42
2023-10-01T06:52:02.476Z,85.54
2023-10-01T06:54:07.069Z,85.50
2023-10-01T06:56:10.880Z,85.01
2023-10-01T06:58:14.781Z,85.67
2023-10-01T07:00:24.032Z,85.59
2023-10-01T07:02:28.314Z,85.83
2023-10-01T07:04:33.678Z,85.20
2023-10-01T07:06:38.436Z,85.63
2023-10-01T07:08:44.796Z,85.15
2023-10-01T07:22:58.098Z,83.22
2023-10-01T07:25:02.672Z,83.48
2023-10-01T07:27:13.634Z,84.24
2023-10-01T07:29:17.693Z,83.87
2023-10-01T07:31:21.391Z,83.64
2023-10-01T07:33:24.739Z,84.08
2023-10-01T07:35:30.684Z,84.25
2023-10-01T07:37:35.170Z,84.64
2023-10-01T07:39:39.434Z,84.54
2023-10-01T07:41:46.001Z,84.15
2023-10-01T07:43:51.003Z,84.46
2023-10-01T07:45:59.748Z,84.75
2023-10-01T07:48:07.199Z,84.58
2023-10-01T07:50:14.385Z,84.39
2023-10-01T07:52:21.436Z,84.36
2023-10-01T07:54:25.640Z,84.53
2023-10-01T07:56:29.333Z,84.66
2023-10-01T07:58:51.893Z,84.71
2023-10-01T08:01:21.840Z,84.55
2023-10-01T08:03:24.565Z,84.50
2023-10-01T08:05:35.447Z,84.41
2023-10-01T08:07:41.751Z,83.77
2023-10-01T08:09:53.539Z,83.18
2023-10-01T08:12:00.377Z,83.31
2023-10-01T08:14:07.313Z,82.95
2023-10-01T08:16:15.198Z,82.64
2023-10-01T08:18:36.947Z,81.97
2023-10-01T08:20:47.987Z,82.12
2023-10-01T08:23:09.641Z,82.60
2023-10-01T08:25:14.859Z,82.29
2023-10-01T08:27:33.460Z,81.03
2023-10-01T08:29:56.129Z,79.68
2023-10-01T08:31:58.682Z,80.05
2023-10-01T08:34:22.268Z,80.36
2023-10-01T08:36:27.769Z,78.71
2023-10-01T08:38:39.496Z,78.24
2023-10-01T08:40:42.852Z,77.89
2023-10-01T08:42:46.655Z,77.11
2023-10-01T08:44:56.311Z,77.12
2023-10-01T08:47:23.806Z,77.42
2023-10-01T08:49:32.752Z,77.68
2023-10-01T08:51:38.818Z,76.41
2023-10-01T08:53:48.252Z,75.80
2023-10-01T08:55:51.618Z,75.20
2023-10-01T08:57:55.009Z,75.93
2023-10-01T09:00:01.835Z,75.17
2023-10-01T09:02:16.768Z,75.55
2023-10-01T09:04:46.323Z,75.22
2023-10-01T09:07:00.992Z,74.73
2023-10-01T09:09:21.698Z,75.11
2023-10-01T09:11:43.839Z,75.21
2023-10-01T09:14:00.177Z,74.37
2023-10-01T09:16:13.258Z,73.85
2023-10-01T09:18:22.079Z,73.18
2023-10-01T09:21:04.611Z,73.93
2023-10-01T09:23:07.484Z,74.77
2023-10-01T09:25:32.349Z,74.10
2023-10-01T09:27:37.905Z,73.20
2023-10-01T09:29:47.780Z,74.54
2023-10-01T09:31:58.926Z,73.24
2023-10-01T09:34:33.332Z,73.22
2023-10-01T09:36:38.792Z,73.27
2023-10-01T09:39:04.695Z,73.44
2023-10-01T09:41:21.395Z,73.43
2023-10-01T09:43:32.369Z,73.09
2023-10-01T09:45:43.207Z,71.60
2023-10-01T09:47:47.303Z,71.92
2023-10-01T09:49:53.503Z,71.95
2023-10-01T09:52:00.754Z,71.40
2023-10-01T09:54:06.761Z,71.59
2023-10-01T09:56:14.190Z,70.53
2023-10-01T09:58:27.681Z,70.06
2023-10-01T10:00:43.562Z,70.69
2023-10-01T10:02:56.313Z,69.73
2023-10-01T10:04:59.648Z,69.57
2023-10-01T10:07:04.491Z,69.30
2023-10-01T10:09:27.330Z,68.16
2023-10-01T10:11:38.877Z,67.66
2023-10-01T10:13:47.974Z,67.90
2023-10-01T10:16:02.861Z,67.84
2023-10-01T10:18:17.668Z,66.98
2023-10-01T10:20:41.844Z,67.08
2023-10-01T10:23:07.958Z,67.02
2023-10-01T10:25:22.018Z,67.57
2023-10-01T10:27:29.175Z,66.98
2023-10-01T10:29:59.382Z,67.64
2023-10-01T10:32:11.676Z,67.69
2023-10-01T10:34:30.729Z,67.04
2023-10-01T10:36:52.235Z,67.71
2023-10-01T10:38:56.057Z,68.39
2023-10-01T10:41:09.836Z,68.33
2023-10-01T10:43:18.654Z,67.25
2023-10-01T10:45:24.216Z,65.79
2023-10-01T10:47:28.301Z,64.78
2023-10-01T10:49:54.402Z,64.37
2023-10-01T10:52:00.514Z,64.39
2023-10-01T10:54:03.652Z,63.83
2023-10-01T10:56:12.283Z,64.17
2023-10-01T10:58:16.375Z,64.45
2023-10-01T11:00:29.635Z,63.75
2023-10-01T11:02:45.166Z,62.19
2023-10-01T11:04:47.977Z,62.60
2023-10-01T11:07:03.766Z,61.90
2023-10-01T11:09:27.844Z,62.49
2023-10-01T11:11:46.146Z,63.23
2023-10-01T11:13:49.351Z,62.40
2023-10-01T11:15:53.314Z,61.54
2023-10-01T11:18:03.514Z,59.23
2023-10-01T11:20:07.445Z,59.87
2023-10-01T11:22:11.689Z,60.58
2023-10-01T11:24:18.722Z,61.32
2023-10-01T11:26:29.082Z,60.94
2023-10-01T11:28:43.365Z,61.19
2023-10-01T11:30:46.451Z,60.40
2023-10-01T11:33:01.490Z,59.42
2023-10-01T11:35:06.712Z,59.97
2023-10-01T11:37:18.947Z,59.56
2023-10-01T11:39:39.737Z,58.34
2023-10-01T11:41:44.077Z,59.13
2023-10-01T12:01:56.286Z,56.35
2023-10-01T12:04:00.352Z,56.63
2023-10-01T12:06:03.718Z,57.26
2023-10-01T12:08:07.669Z,57.07
2023-10-01T12:10:32.962Z,56.32
2023-10-01T12:12:39.851Z,56.66
2023-10-01T12:14:55.374Z,56.94
2023-10-01T12:16:59.521Z,55.52
2023-10-01T12:19:22.096Z,55.67
2023-10-01T12:21:28.191Z,55.96
2023-10-01T12:23:35.141Z,54.55
2023-10-01T12:25:48.348Z,54.64
2023-10-01T12:27:52.064Z,53.79
2023-10-01T12:29:56.235Z,52.61
2023-10-01T12:32:01.270Z,53.80
2023-10-01T12:34:04.110Z,55.55
2023-10-01T12:36:34.429Z,55.57
2023-10-01T12:38:38.178Z,56.66
2023-10-01T12:40:42.241Z,55.80
2023-10-01T12:42:51.687Z,56.30
2023-10-01T12:45:14.931Z,55.98
2023-10-01T12:47:17.623Z,55.74
2023-10-01T12:49:20.538Z,55.51
2023-10-01T12:51:23.208Z,54.72
2023-10-01T12:53:26.514Z,54.22
2023-10-01T12:55:30.893Z,54.56
2023-10-01T12:57:40.515Z,54.76
2023-10-01T12:59:46.143Z,55.05
2023-10-01T13:01:53.800Z,54.82
2023-10-01T13:04:00.234Z,54.83
2023-10-01T13:06:07.272Z,53.58
2023-10-01T13:08:13.024Z,53.24
2023-10-01T13:10:19.113Z,53.30
2023-10-01T13:12:26.807Z,54.63
2023-10-01T13:16:37.377Z,52.80
2023-10-01T13:18:43.788Z,52.95
2023-10-01T13:20:59.071Z,53.13
2023-10-01T13:23:08.506Z,53.07
2023-10-01T13:25:11.345Z,52.17
2023-10-01T13:27:18.130Z,51.56
2023-10-01T13:29:32.317Z,53.12
2023-10-01T13:31:35.564Z,53.91
2023-10-01T13:33:57.262Z,53.87
2023-10-01T13:36:14.446Z,53.62
2023-10-01T13:38:29.134Z,53.42
2023-10-01T13:40:34.007Z,52.86
2023-10-01T13:42:55.249Z,52.76
2023-10-01T13:45:16.640Z,53.01
2023-10-01T13:47:38.460Z,53.60
2023-10-01T13:50:00.102Z,52.80
2023-10-01T13:52:22.090Z,52.78
2023-10-01T13:54:42.836Z,52.90
2023-10-01T13:57:04.086Z,52.75
2023-10-01T13:59:25.637Z,52.11
2023-10-01T14:01:47.048Z,52.60
2023-10-01T14:04:08.737Z,53.15
2023-10-01T14:06:30.863Z,53.25
2023-10-01T14:08:45.872Z,53.85
2023-10-01T14:10:52.788Z,53.51
2023-10-01T14:12:58.721Z,53.20
2023-10-01T14:15:01.245Z,52.00
2023-10-01T14:17:16.464Z,51.68
2023-10-01T14:19:25.392Z,52.00
2023-10-01T14:21:29.448Z,52.19
2023-10-01T14:23:41.893Z,52.31
2023-10-01T14:26:17.089Z,52.36
2023-10-01T14:28:23.994Z,52.98
2023-10-01T14:30:27.647Z,53.06
2023-10-01T14:32:37.206Z,52.88
2023-10-01T14:34:41.040Z,52.83
2023-10-01T14:36:44.374Z,52.38
2023-10-01T14:38:48.640Z,51.66
2023-10-01T14:41:02.342Z,52.47
2023-10-01T14:43:05.765Z,52.73
2023-10-01T14:45:11.622Z,52.53
2023-10-01T14:47:19.341Z,52.78
2023-10-01T14:49:25.323Z,52.76
2023-10-01T14:51:27.984Z,52.97
2023-10-01T14:53:38.221Z,52.64
2023-10-01T14:55:42.533Z,52.68
2023-10-01T14:57:53.840Z,52.81
2023-10-01T14:59:58.190Z,52.17
2023-10-01T15:02:01.557Z,52.31
2023-10-01T15:04:19.438Z,52.08
2023-10-01T15:06:24.665Z,52.11
2023-10-01T15:08:31.598Z,52.59
2023-10-01T15:10:34.221Z,52.60
2023-10-01T15:12:52.212Z,52.48
2023-10-01T15:15:08.080Z,53.35
2023-10-01T15:17:21.487Z,53.84
2023-10-01T15:19:28.607Z,55.34
2023-10-01T15:21:33.455Z,55.25
2023-10-01T15:23:37.892Z,55.39
2023-10-01T15:25:41.070Z,56.22
2023-10-01T15:27:43.698Z,56.64
2023-10-01T15:29:54.714Z,57.90
2023-10-01T15:31:58.179Z,57.83
2023-10-01T15:34:20.975Z,57.93
2023-10-01T15:36:24.121Z,58.12
2023-10-01T15:38:34.971Z,58.11
2023-10-01T15:40:53.598Z,58.95
2023-10-01T15:42:56.927Z,59.62
2023-10-01T15:45:01.925Z,58.94
2023-10-01T15:47:05.617Z,59.41
2023-10-01T15:49:21.356Z,60.05
2023-10-01T15:51:28.042Z,60.47
2023-10-01T15:53:31.230Z,61.13
2023-10-01T15:55:34.087Z,61.13
2023-10-01T15:57:36.761Z,61.34
2023-10-01T15:59:39.317Z,61.51
2023-10-01T16:01:52.992Z,61.93
2023-10-01T16:03:56.283Z,61.89
2023-10-01T16:06:11.241Z,63.07
2023-10-01T16:08:24.289Z,63.09
2023-10-01T16:10:27.321Z,63.45
2023-10-01T16:12:30.723Z,63.53
2023-10-01T16:14:36.858Z,63.03
2023-10-01T16:16:45.261Z,63.51
2023-10-01T16:18:48.864Z,63.78
2023-10-01T16:20:53.025Z,64.01
2023-10-01T16:22:57.538Z,64.06
2023-10-01T16:25:11.336Z,64.14
2023-10-01T16:27:26.667Z,63.73
2023-10-01T16:29:29.677Z,64.14
2023-10-01T16:31:33.858Z,64.36
2023-10-01T16:33:43.032Z,64.35
2023-10-01T16:35:50.607Z,64.38
2023-10-01T16:37:58.381Z,65.15
2023-10-01T16:40:20.448Z,65.43
2023-10-01T16:42:24.083Z,65.75
2023-10-01T16:44:32.275Z,65.78
2023-10-01T16:46:35.392Z,65.80
2023-10-01T16:48:40.043Z,65.52
2023-10-01T16:51:04.643Z,65.88
2023-10-01T16:53:07.344Z,66.47
2023-10-01T16:55:10.408Z,66.54
2023-10-01T16:57:27.445Z,67.16
2023-10-01T16:59:33.542Z,67.80
2023-10-01T17:01:39.722Z,67.71
2023-10-01T17:03:50.484Z,68.07
2023-10-01T17:05:53.885Z,68.28
2023-10-01T17:07:57.510Z,68.87
2023-10-01T17:10:07.179Z,68.65
2023-10-01T17:12:17.244Z,69.25
2023-10-01T17:14:21.302Z,69.14
2023-10-01T17:16:27.105Z,69.06
2023-10-01T17:18:40.327Z,68.99
2023-10-01T17:20:47.488Z,68.96
2023-10-01T17:22:50.635Z,68.89
2023-10-01T17:24:54.862Z,69.08
2023-10-01T17:27:18.108Z,68.66
2023-10-01T17:29:31.121Z,69.23
2023-10-01T17:31:41.645Z,69.33
2023-10-01T17:33:44.700Z,69.45
2023-10-01T17:35:50.583Z,69.55
2023-10-01T17:37:55.456Z,69.83
2023-10-01T17:40:02.750Z,69.77
2023-10-01T17:42:09.573Z,70.31
2023-10-01T17:44:17.465Z,70.79
2023-10-01T17:46:21.180Z,70.55
2023-10-01T17:48:24.505Z,70.80
2023-10-01T17:50:27.745Z,71.03
2023-10-01T17:52:38.520Z,71.60
2023-10-01T17:54:45.261Z,71.58
2023-10-01T17:56:48.259Z,71.74
2023-10-01T17:58:53.855Z,71.86
2023-10-01T18:00:58.768Z,71.90
2023-10-01T18:03:02.767Z,71.96
2023-10-01T18:05:27.105Z,72.16
2023-10-01T18:07:35.814Z,72.33
2023-10-01T18:09:47.359Z,72.05
2023-10-01T18:11:51.691Z,72.57
2023-10-01T18:13:58.955Z,72.70
2023-10-01T18:16:02.275Z,72.68
2023-10-01T18:18:05.460Z,73.30
2023-10-01T18:20:19.825Z,73.13
2023-10-01T18:22:27.792Z,73.37
2023-10-01T18:24:32.664Z,74.22
2023-10-01T18:26:36.169Z,74.00
2023-10-01T18:28:38.883Z,74.42
2023-10-01T18:30:50.205Z,74.13
2023-10-01T18:32:55.510Z,74.48
2023-10-01T18:34:58.972Z,73.91
2023-10-01T18:37:08.241Z,74.31
2023-10-01T18:39:28.184Z,74.38
2023-10-01T18:41:36.199Z,74.68
2023-10-01T18:43:38.830Z,74.43
2023-10-01T18:45:42.878Z,74.55
2023-10-01T18:47:46.744Z,74.94
2023-10-01T18:49:49.805Z,74.80
2023-10-01T18:51:55.337Z,75.46
2023-10-01T18:53:58.811Z,75.26
2023-10-01T18:56:02.604Z,75.22
2023-10-01T18:58:05.544Z,74.66
2023-10-01T19:00:22.669Z,75.21
2023-10-01T19:02:25.771Z,74.95
2023-10-01T19:04:33.452Z,75.10
2023-10-01T19:06:40.158Z,74.66
2023-10-01T19:08:43.185Z,73.97
2023-10-01T19:11:07.895Z,74.39
2023-10-01T19:13:10.862Z,74.81
2023-10-01T19:15:21.073Z,74.38
2023-10-01T19:17:23.989Z,74.13
2023-10-01T19:19:30.399Z,74.67
2023-10-01T19:21:36.900Z,75.83
2023-10-01T19:23:42.263Z,76.29
2023-10-01T19:25:45.003Z,75.67
2023-10-01T19:27:47.624Z,75.45
2023-10-01T19:29:51.026Z,75.70
2023-10-01T19:31:56.302Z,75.64
2023-10-01T19:34:00.570Z,75.21
2023-10-01T19:36:04.178Z,75.20
2023-10-01T19:38:06.948Z,75.24
2023-10-01T19:40:19.479Z,74.68
2023-10-01T19:42:25.659Z,74.92
2023-10-01T19:44:32.807Z,74.49
2023-10-01T19:46:38.960Z,74.96
2023-10-01T19:48:54.169Z,74.99
2023-10-01T19:50:58.160Z,74.57
2023-10-01T19:53:19.364Z,75.00
2023-10-01T19:55:25.983Z,75.60
2023-10-01T19:57:41.726Z,75.36
2023-10-01T19:59:49.194Z,76.22
2023-10-01T20:01:52.080Z,76.09
2023-10-01T20:03:57.278Z,76.01
2023-10-01T20:06:07.303Z,76.61
2023-10-01T20:08:10.956Z,76.93
2023-10-01T20:10:15.354Z,76.90
2023-10-01T20:12:18.962Z,76.69
2023-10-01T20:14:21.681Z,76.29
2023-10-01T20:16:28.174Z,76.41
2023-10-01T20:18:32.775Z,76.43
2023-10-01T20:20:36.059Z,76.31
2023-10-01T20:22:45.712Z,76.59
2023-10-01T20:24:53.021Z,76.96
2023-10-01T20:26:56.629Z,77.30
2023-10-01T20:29:00.599Z,77.50
2023-10-01T20:31:06.254Z,77.50
2023-10-01T20:33:16.889Z,77.55
2023-10-01T20:35:19.957Z,77.34
2023-10-01T20:37:25.043Z,77.91
2023-10-01T20:39:41.888Z,78.42
2023-10-01T20:41:45.112Z,77.83
2023-10-01T20:43:51.861Z,77.88
2023-10-01T20:45:56.197Z,77.95
2023-10-01T20:47:59.154Z,77.90
2023-10-01T20:50:08.825Z,77.83
2023-10-01T20:52:12.554Z,78.10
2023-10-01T20:54:15.904Z,78.12
2023-10-01T20:56:27.255Z,78.34
2023-10-01T20:58:35.197Z,78.83
2023-10-01T21:00:40.571Z,78.82
2023-10-01T21:02:44.407Z,78.65
2023-10-01T21:04:52.534Z,79.20
2023-10-01T21:07:03.689Z,78.80
2023-10-01T21:09:20.525Z,78.99
2023-10-01T21:11:25.642Z,78.66
2023-10-01T21:13:28.720Z,78.61
2023-10-01T21:15:33.249Z,79.25
2023-10-01T21:17:36.359Z,79.14
2023-10-01T21:19:43.653Z,79.20
2023-10-01T21:21:47.975Z,78.52
2023-10-01T21:23:51.106Z,78.70
2023-10-01T21:25:55.452Z,78.41
2023-10-01T21:28:13.133Z,78.59
2023-10-01T21:30:18.113Z,78.80
2023-10-01T21:32:21.289Z,78.71
2023-10-01T21:34:25.713Z,78.70
2023-10-01T21:36:29.755Z,78.84
2023-10-01T21:38:32.686Z,78.64
2023-10-01T21:40:37.973Z,78.56
2023-10-01T21:42:43.515Z,78.95
2023-10-01T21:44:47.798Z,79.13
2023-10-01T21:46:50.504Z,79.14
2023-10-01T21:48:54.862Z,79.61
2023-10-01T21:51:01.380Z,79.11
2023-10-01T21:53:40.590Z,78.99
2023-10-01T21:55:43.811Z,79.59
2023-10-01T21:57:47.007Z,79.04
2023-10-01T21:59:50.244Z,78.80
2023-10-01T22:01:54.787Z,79.10
2023-10-01T22:04:00.814Z,79.37
2023-10-01T22:06:07.127Z,79.17
2023-10-01T22:08:26.089Z,79.34
2023-10-01T22:10:42.282Z,79.35
2023-10-01T22:12:50.087Z,79.14
2023-10-01T22:14:55.650Z,79.14
2023-10-01T22:16:58.920Z,79.81
2023-10-01T22:19:05.654Z,79.49
2023-10-01T22:21:08.208Z,79.46
2023-10-01T22:23:11.645Z,79.51
2023-10-01T22:25:17.473Z,79.36
2023-10-01T22:27:20.018Z,79.93
2023-10-01T22:29:34.469Z,80.00
2023-10-01T22:31:40.317Z,79.95
2023-10-01T22:33:46.922Z,80.19
2023-10-01T22:35:49.986Z,80.49
2023-10-01T22:38:02.552Z,80.51
2023-10-01T22:40:09.286Z,80.68
2023-10-01T22:42:25.168Z,80.77
2023-10-01T22:44:31.914Z,81.04
2023-10-01T22:46:34.333Z,81.06
2023-10-01T22:48:46.385Z,80.90
2023-10-01T22:50:52.725Z,80.58
2023-10-01T22:52:56.275Z,80.77
2023-10-01T22:55:00.931Z,80.68
2023-10-01T22:57:05.542Z,80.64
2023-10-01T22:59:08.821Z,80.77
2023-10-01T23:01:20.543Z,81.17
2023-10-01T23:03:32.582Z,81.24
2023-10-01T23:05:44.955Z,80.97
2023-10-01T23:07:49.367Z,81.07
2023-10-01T23:09:52.471Z,81.20
2023-10-01T23:11:55.532Z,81.17
2023-10-01T23:13:58.262Z,81.30
2023-10-01T23:16:17.654Z,80.23
2023-10-01T23:18:25.887Z,80.00
2023-10-01T23:20:34.718Z,80.27
2023-10-01T23:22:37.539Z,80.33
2023-10-01T23:24:43.289Z,80.54
2023-10-01T23:26:46.155Z,80.50
2023-10-01T23:29:10.386Z,80.60
2023-10-01T23:31:16.615Z,80.38
2023-10-01T23:33:21.804Z,80.69
2023-10-01T23:35:58.004Z,80.38
2023-10-01T23:38:23.608Z,80.42
2023-10-01T23:40:27.035Z,80.48
2023-10-01T23:42:31.056Z,80.40
2023-10-01T23:44:52.434Z,80.44
2023-10-01T23:46:56.788Z,80.77
2023-10-01T23:48:59.504Z,80.48
2023-10-01T23:51:02.160Z,80.14
2023-10-01T23:53:07.633Z,80.00
2023-10-01T23:55:28.245Z,79.79
2023-10-01T23:57:31.000Z,80.58
2023-10-01T23:59:35.024Z,80.48
